Denton, Maryland
Current Conditions -  °F | °C
As of 12:31 AM on Saturday 25 Oct 2014 (Local Time) from KESN Reporting Station
Clear Clear  
Wind Chill: 55°   Ceiling: Unl
Heat Index: 55°   Visibility: 10mi
Dew Point: 42°   Wind: 3mph
Humidity: 62%   Direction: 330°NNW
Pressure: 29.97"   Gusts: NA
Location:  38.88°N, 75.83°W
Report Text: KESN 250431Z AUTO 33003KT 10SM CLR 13/06 A2997 RMK AO2 T01290057
Loading
Personal Weather Stations






























Interactive Weather Map
Tropical Storm Tracking
New forecast layout! Learn more

10-Day Weather Forecast

Advertisements
Track Severe Weather on mobile